Orlando, Florida
Traffic Map
Current Weather Conditions
Orlando, Florida
Clear
Clear
18°
Feels Like: 18°
Wind Chill: 18° Ceiling: Unl
Heat Index: 18° Visibility: 10mi
Dew Point: 13° Wind: 7mph
Humidity: 73% Direction: 360° (N)
Pressure: 29.98in Gusts: 0mph
Raw Report DataKORL 241153Z 36006KT 10SM CLR 18/13 A2998 RMK AO2 SLP154 T01830133 10183 20178 53008
Traffic Incident Summary
Active as of:
Severity:
Category:
InformationThere was an issue retrieving the traffic information for this location. Please try a different location or try again shortly.
Advertisements
Track Severe Weather on mobile